Flight Number: EUR3110 Duration: 9:30
Departure: Moscow Sheremetyevo (UUEE) at 08:30 Distance: 4037 Nm
Arrival: John F Kennedy Int'l (KJFK) at 18:00 Equipment: B747

Weather Information
Moscow / Sheremet'Ye , Russia (UUEE) 55-59N 037-30E Nov 19, 2017 - 10:30 PM EST / 2017.11.20 0330 UTC
Wind: from the SSW (210 degrees) at 11 MPH (10 KT):0
Visibility: greater than 7 mile(s):0
Sky conditions: mostly cloudy Temperature: 33 F (1 C)
Windchill: 24 F (-4 C):1 Dew Point: 30 F (-1 C) Relative Humidity: 86% Pressure (altimeter): 29.74 in. Hg (1007 hPa)
ob: UUEE 200330Z 21005MPS 9999 BKN015 01/M01 Q1007 R24L/290051 R24R/290045 NOSIG cycle: 3
Sunrise: 05:23 Sunset: 13:09 (UTC)

KENNEDY INTERNATIONAL AIRPORT , NY, United States (KJFK) 40-38N 073-46W 9M Nov 19, 2017 - 10:51 PM EST / 2017.11.20 0351 UTC
Wind: from the NW (320 degrees) at 20 MPH (17 KT) gusting to 29 MPH (25 KT):0
Visibility: 10 mile(s):0
Sky conditions: overcast Temperature: 42.1 F (5.6 C) Dew Point: 30.9 F (-0.6 C) Relative Humidity: 64% Pressure (altimeter): 29.8 in. Hg (1009 hPa)
ob: KJFK 200351Z 32017G25KT 10SM FEW038 OVC060 06/M01 A2980 RMK AO2 SLP089 VCSH NW-N T00561006 cycle: 4
Sunrise: 11:51 Sunset: 21:29 (UTC)

TAF:2017/11/20 03:38 TAF AMD KJFK 200230Z 2003/2106 29014G22KT P6SM BKN060 FM201300 28019G28KT P6SM SCT050 FM202100 25017G23KT P6SM FEW050 FM210300 25014KT P6SM SKC

Previous Pireps for this route
Date Aircraft Flight time Fuel used Landing rate On time
2015-05-06A34009.42163207-115Charter
2016-05-21B74709.22186414-142Yes
2017-05-13B74709.05204715-124Charter
(pireps marked green are flown by you)

Route map